Webcam  Webcam


Lyn radar more information blitzortung!


Regn radar more information rain snow radar



Lokal METAR Rapport

   
EHVK - Volkel Rnlafb, Netherlands
Afstand fra station: SV 18 km
Opdateret: 05-10-2022 17:25
mest skyet  
mest skyet  
   Vind: VSV 12.3 m/s
Vind: VSV 12.3 m/s
Temperatur: 19°C
Dugpunkt: 12°C
Luftfugtighed: 64%
Barometer: 1013 hPa
Skyet: mest skyet
Sigtbarhed: mere end 10 km
Sky detaljer: Delvis skyet 3000 ft,
mest skyet 3900 ft
EHVK 051525Z AUTO 24024KT 9999 SCT030 BKN039 19/12 Q1013 BLU
EDLV - Niederrhein, Germany
Afstand fra station: SØ 25 km
Opdateret: 05-10-2022 17:20
Delvis skyet  
Delvis skyet  
   Vind: SV 9.3 m/s<br />Gust to 9.3 m/s
Vind: SV 9.3 m/s
Gust to 9.3 m/s
Temperatur: 20°C
Dugpunkt: 12°C
Luftfugtighed: 60%
Barometer: 1013 hPa
Skyet: Delvis skyet
Sigtbarhed: mere end 10 km
Sky detaljer: Let Skyet 3700 ft,
Delvis skyet 4400 ft
EDLV 051520Z 23018G28KT 200V260 9999 FEW037 SCT044 20/12 Q1013
EHDL - Deelen Rnlafb, Netherlands
Afstand fra station: N 35 km
Opdateret: 05-10-2022 17:25
Overskyet  
Overskyet  
   Vind: VSV 7.7 m/s
Vind: VSV 7.7 m/s
Temperatur: 19°C
Dugpunkt: 12°C
Luftfugtighed: 64%
Barometer: 1012 hPa
Skyet: Overskyet
Sigtbarhed: mere end 10 km
Sky detaljer: Let Skyet 3100 ft,
mest skyet 3600 ft,
Overskyet 4200 ft
EHDL 051525Z AUTO 24015KT 180V310 9999 FEW031 BKN036 OVC042 19/12 Q1012 BLU
EHEH - Eindhoven Rnlafb, Netherlands
Afstand fra station: SV 48 km
Opdateret: 05-10-2022 17:25
Overskyet  
Overskyet  
   Vind: SV 11.3 m/s<br />Gust to 11.3 m/s
Vind: SV 11.3 m/s
Gust to 11.3 m/s
Temperatur: 18°C
Dugpunkt: 10°C
Luftfugtighed: 60%
Barometer: 1014 hPa
Skyet: Overskyet
Sigtbarhed: mere end 10 km
Sky detaljer: mest skyet 3300 ft,
Overskyet 3700 ft
EHEH 051525Z AUTO 22022G32KT 190V260 9999 BKN033 OVC037 18/10 Q1014 BLU TEMPO 22016G32KT
EHGR - Gilze-Rijen Rnla, Netherlands
Afstand fra station: VSV 70 km
Opdateret: 05-10-2022 17:25
Overskyet  
Overskyet  
   Vind: SSV 6.7 m/s<br />Gust to 6.7 m/s
Vind: SSV 6.7 m/s
Gust to 6.7 m/s
Temperatur: 18°C
Dugpunkt: 11°C
Luftfugtighed: 64%
Barometer: 1013 hPa
Skyet: Overskyet
Sigtbarhed: mere end 10 km
Sky detaljer: Overskyet 3100 ft
EHGR 051525Z AUTO 20013G26KT 170V250 9999 OVC031 18/11 Q1013 BLU
EBBL - Kleine-Brogel(Ba, Belgium
Afstand fra station: SSV 71 km
Opdateret: 05-10-2022 17:25
mest skyet  
mest skyet  
   Vind: VSV 8.2 m/s
Vind: VSV 8.2 m/s
Temperatur: 18°C
Dugpunkt: 11°C
Luftfugtighed: 64%
Barometer: 1015 hPa
Skyet: mest skyet
Sigtbarhed: mere end 10 km
Sky detaljer: mest skyet 3800 ft
EBBL 051525Z AUTO 24016KT 9999 BKN038/// 18/11 Q1015 BLU

Script udviklet af  Saratoga-weather.org Tilpasset til denne template af  Weerstation Leuven

Du finder også vores vejrinformationer på:

UK Metoffice

European Weather Network

WeatherCloud

Weather Underground

AWEKAS

Citizen Weather Observer Program (CWOP)

HAMweather, WeatherForYou, PWS Weather

Udstyr som vi anvender:

Vejrstation
Davis VP2

Vejrprogram
Meteobridge

Vejrserver
Meteobridge Pro

Davis VP2

Meteobridge

Meteobridge Pro